AirNav   TITAN Aviation Fuels
 
 1186 users online  

6FD5 Blanket Bay Airport
Yeehaw Junction, Florida, USA

GOING TO YEEHAW JUNCTION?


FAA INFORMATION EFFECTIVE 22 APRIL 2021

Location

FAA Identifier: 6FD5
Lat/Long: 27-46-43.1000N 081-05-59.2370W
27-46.718333N 081-05.987283W
27.7786389,-81.0997881
(estimated)
Elevation: 65 ft. / 20 m (estimated)
Variation: 03W (1990)
From city: 14 miles NW of YEEHAW JUNCTION, FL
Time zone: UTC -4 (UTC -5 during Standard Time)
Zip code: 34739

Airport Operations

Airport use: Private use. Permission required prior to landing
Activation date: 06/1992
Control tower: no
ARTCC: MIAMI CENTER
FSS: SAINT PETERSBURG FLIGHT SERVICE STATION
Attendance: UNATNDD
Wind indicator: yes
Segmented circle: no

Nearby radio navigation aids

VOR radial/distance  VOR name  Freq  Var
MLBr238/31.5MELBOURNE VOR/DME110.0007W
TRVr288/33.0TREASURE VORTAC117.3007W

Airport Services

Runway Information

Runway 10/28

Dimensions: 3000 x 80 ft. / 914 x 24 m
Surface: turf, in fair condition
RUNWAY 10  RUNWAY 28
Traffic pattern: leftleft
Displaced threshold: 100 ft.100 ft.

Airport Ownership and Management from official FAA records

Ownership: Privately-owned
Owner: BEXLEY RANCH LAND TRUST
PO BOX 10
SUMTERVILLE, FL 33585-2909
Phone 352-569-1264
Manager: BRIAN BEXLEY
PO BOX 10
SUMTERVILLE, FL 33585-2909
Phone 352-569-1264

Additional Remarks

FOR CD CTC MIAMI ARTCC AT 305-716-1731.

Instrument Procedures

There are no published instrument procedures at 6FD5.

Some nearby airports with instrument procedures:

KSEF - Sebring Regional Airport (23 nm SW)
KAVO - Avon Park Executive Airport (25 nm SW)
X07 - Lake Wales Municipal Airport (29 nm W)
KMLB - Melbourne International Airport (31 nm NE)
X26 - Sebastian Municipal Airport (32 nm E)
 
Loc | Ops | Rwys | IFR | FBO | Links
Com | Nav | Svcs | Stats | Notes


 
Area around 6FD5 (Blanket Bay Airport)
 
Road maps at: MapQuest Bing Google
 
Aerial photo
No photo
 
Sectional chart

 
Airport distance calculator
Flying to Blanket Bay Airport? Find the distance to fly.

From to 6FD5

Sunrise and sunset
Times for 17-May-2021
 Local
(UTC-4)
 Zulu
(UTC)
Morning civil twilight06:0910:09
Sunrise06:3510:35
Sunset20:0700:07
Evening civil twilight20:3200:32

Current date and time
Zulu (UTC)  17-May-2021 23:29:39
Local (UTC-4)  17-May-2021 19:29:39
 
METAR
KSEF 
23nm SW 
172315Z AUTO 09010KT 10SM SCT065 27/12 A3010 RMK AO2 T02660115
KX07 
28nm W 
172315Z AUTO 09014G21KT 10SM CLR 26/14 A3011 RMK A01
TAF
KMLB 
31nm NE 
171742Z 1718/1818 10013KT P6SM SCT035 SCT050 FM180200 09012KT P6SM SCT045 BKN250 FM181500 08017G24KT P6SM SCT045 BKN250
KISM 
35nm NW 
171742Z 1718/1818 08014G22KT P6SM BKN045 BKN060 FM180200 07005KT P6SM FEW060 BKN250 FM181600 08017G24KT P6SM SCT045 BKN250
KVRB 
37nm E 
171742Z 1718/1818 07013KT P6SM SCT035 FM180200 09011KT P6SM SCT045 BKN250 FM181500 08017G24KT P6SM SCT035 SCT050 BKN250
KCOF 
38nm NE 
171800Z 1718/1824 09012KT 9999 SCT035 QNH3007INS BECMG 1806/1807 08010KT 9000 -SHRA BKN035 BKN200 QNH3009INS BECMG 1811/1812 07012G18KT 9999 NSW SCT030 SCT200 QNH3013INS TEMPO 1818/1822 09015G25KT TX29/1817Z TN22/1809Z
NOTAMs
Click for the latest NOTAMs
NOTAMs are issued by the DoD/FAA and will open in a separate window not controlled by AirNav.

 

 
 

Would you like to see your business listed on this page?

 If your business provides an interesting product or service to pilots, flight crews, aircraft, or users of the Blanket Bay Airport, you should consider listing it here.  To start the listing process, click on the button below
 
Add a business
 

Other Pages about Blanket Bay Airport

Update a link
 
Copyright © AirNav, LLC. All rights reserved. Privacy Policy  Contact